createdAt,value
2019-02-26T00:00:32.531Z,0.00
2019-02-26T00:01:32.518Z,0.00
2019-02-26T00:02:32.659Z,0.00
2019-02-26T00:03:33.204Z,0.00
2019-02-26T00:04:34.486Z,0.00
2019-02-26T00:05:33.062Z,0.00
2019-02-26T00:06:32.464Z,0.00
2019-02-26T00:07:32.462Z,0.00
2019-02-26T00:08:33.508Z,0.00
2019-02-26T00:09:35.083Z,0.00
2019-02-26T00:10:35.882Z,0.00
2019-02-26T00:11:33.400Z,0.00
2019-02-26T00:12:33.287Z,0.00
2019-02-26T00:13:34.103Z,0.00
2019-02-26T00:14:32.369Z,0.00
2019-02-26T00:15:35.527Z,0.00
2019-02-26T00:16:35.411Z,0.00
2019-02-26T00:17:36.059Z,0.00
2019-02-26T00:18:32.375Z,0.00
2019-02-26T00:19:32.315Z,0.00
2019-02-26T00:20:34.356Z,0.00
2019-02-26T00:21:32.299Z,0.00
2019-02-26T00:22:34.035Z,0.00
2019-02-26T00:23:32.272Z,0.00
2019-02-26T00:24:35.035Z,0.00
2019-02-26T00:25:32.272Z,0.00
2019-02-26T00:26:34.029Z,0.00
2019-02-26T00:27:32.969Z,0.00
2019-02-26T00:28:34.047Z,0.00
2019-02-26T00:29:32.287Z,0.00
2019-02-26T00:30:33.401Z,0.00
2019-02-26T00:31:32.187Z,0.00
2019-02-26T00:32:33.812Z,0.00
2019-02-26T00:33:32.161Z,0.00
2019-02-26T00:34:32.766Z,0.00
2019-02-26T00:35:32.174Z,0.00
2019-02-26T00:36:33.728Z,0.00
2019-02-26T00:37:32.126Z,0.00
2019-02-26T00:38:33.061Z,0.00
2019-02-26T00:39:32.095Z,0.00
2019-02-26T00:40:34.225Z,0.00
2019-02-26T00:41:33.564Z,0.00
2019-02-26T00:42:33.823Z,0.00
2019-02-26T00:43:32.914Z,0.00
2019-02-26T00:44:32.777Z,0.00
2019-02-26T00:45:34.121Z,0.00
2019-02-26T00:46:32.594Z,0.00
2019-02-26T00:47:34.002Z,0.00
2019-02-26T00:48:33.652Z,0.00
2019-02-26T00:49:32.008Z,0.00
2019-02-26T00:50:33.147Z,0.00
2019-02-26T00:51:31.972Z,0.00
2019-02-26T00:52:32.720Z,0.00
2019-02-26T00:53:33.085Z,0.00
2019-02-26T00:54:34.279Z,0.00
2019-02-26T00:55:32.710Z,0.00
2019-02-26T00:56:33.858Z,0.00
2019-02-26T00:57:33.526Z,0.00
2019-02-26T00:58:32.085Z,0.00
2019-02-26T00:59:31.881Z,0.00
2019-02-26T01:00:33.265Z,0.00
2019-02-26T01:01:31.865Z,0.00
2019-02-26T01:02:31.840Z,0.00
2019-02-26T01:03:31.830Z,0.00
2019-02-26T01:04:31.822Z,0.00
2019-02-26T01:05:31.813Z,0.00
2019-02-26T01:06:33.488Z,0.00
2019-02-26T01:07:31.785Z,0.00
2019-02-26T01:08:31.774Z,0.00
2019-02-26T01:09:33.889Z,0.00
2019-02-26T01:10:31.780Z,0.00
2019-02-26T01:11:31.755Z,0.00
2019-02-26T01:12:33.039Z,0.00
2019-02-26T01:13:32.262Z,0.00
2019-02-26T01:14:31.745Z,0.00
2019-02-26T01:15:31.697Z,0.00
2019-02-26T01:16:31.696Z,0.00
2019-02-26T01:17:33.457Z,0.00
2019-02-26T01:18:31.676Z,0.00
2019-02-26T01:19:32.157Z,0.00
2019-02-26T01:20:32.042Z,0.00
2019-02-26T01:21:33.541Z,0.00
2019-02-26T01:22:33.031Z,0.00
2019-02-26T01:23:31.613Z,0.00
2019-02-26T01:24:32.719Z,0.00
2019-02-26T01:25:31.600Z,0.00
2019-02-26T01:26:31.581Z,0.00
2019-02-26T01:27:31.569Z,0.00
2019-02-26T01:28:31.555Z,0.00
2019-02-26T01:29:32.344Z,0.00
2019-02-26T01:30:33.781Z,0.00
2019-02-26T01:31:32.174Z,0.00
2019-02-26T01:32:31.513Z,0.00
2019-02-26T01:33:32.159Z,0.00
2019-02-26T01:34:31.485Z,0.00
2019-02-26T01:35:33.147Z,0.00
2019-02-26T01:36:31.507Z,0.00
2019-02-26T01:37:32.196Z,0.00
2019-02-26T01:38:31.447Z,0.00
2019-02-26T01:39:31.436Z,0.00
2019-02-26T01:40:31.428Z,0.00
2019-02-26T01:41:31.413Z,0.00
2019-02-26T01:42:31.732Z,0.00
2019-02-26T01:43:31.384Z,0.00
2019-02-26T01:44:32.947Z,0.00
2019-02-26T01:45:32.395Z,0.00
2019-02-26T01:46:32.263Z,0.00
2019-02-26T01:47:31.366Z,0.00
2019-02-26T01:48:32.206Z,0.00
2019-02-26T01:49:31.326Z,0.00
2019-02-26T01:50:33.227Z,0.00
2019-02-26T01:51:31.306Z,0.00
2019-02-26T01:52:31.305Z,0.00
2019-02-26T01:53:31.276Z,0.00
2019-02-26T01:54:33.015Z,0.00
2019-02-26T01:55:31.274Z,0.00
2019-02-26T01:56:31.240Z,0.00
2019-02-26T01:57:31.231Z,0.00
2019-02-26T01:58:33.431Z,0.00
2019-02-26T01:59:33.590Z,0.00
2019-02-26T02:00:31.201Z,0.00
2019-02-26T02:01:31.191Z,0.00
2019-02-26T02:02:31.177Z,0.00
2019-02-26T02:03:32.620Z,0.00
2019-02-26T02:04:32.097Z,0.00
2019-02-26T02:05:31.465Z,0.00
2019-02-26T02:06:33.098Z,0.00
2019-02-26T02:07:31.126Z,0.00
2019-02-26T02:08:31.112Z,0.00
2019-02-26T02:09:31.099Z,0.00
2019-02-26T02:10:31.084Z,0.00
2019-02-26T02:11:32.992Z,0.00
2019-02-26T02:12:32.431Z,0.00
2019-02-26T02:13:32.969Z,0.00
2019-02-26T02:14:31.049Z,0.00
2019-02-26T02:15:31.028Z,0.00
2019-02-26T02:16:31.820Z,0.00
2019-02-26T02:17:33.292Z,0.00
2019-02-26T02:18:31.002Z,0.00
2019-02-26T02:19:32.666Z,0.00
2019-02-26T02:20:30.985Z,0.00
2019-02-26T02:21:33.191Z,0.00
2019-02-26T02:22:32.918Z,0.00
2019-02-26T02:23:30.962Z,0.00
2019-02-26T02:24:30.932Z,0.00
2019-02-26T02:25:33.144Z,0.00
2019-02-26T02:26:30.911Z,0.00
2019-02-26T02:27:33.158Z,0.00
2019-02-26T02:28:32.818Z,0.00
2019-02-26T02:29:30.878Z,0.00
2019-02-26T02:30:31.778Z,0.00
2019-02-26T02:31:34.615Z,0.00
2019-02-26T02:32:32.348Z,0.00
2019-02-26T02:33:33.093Z,0.00
2019-02-26T02:34:33.015Z,0.00
2019-02-26T02:35:31.808Z,0.00
2019-02-26T02:36:30.803Z,0.00
2019-02-26T02:37:31.952Z,0.00
2019-02-26T02:38:30.774Z,0.00
2019-02-26T02:39:30.770Z,0.00
2019-02-26T02:40:30.753Z,0.00
2019-02-26T02:41:30.753Z,0.00
2019-02-26T02:42:30.747Z,0.00
2019-02-26T02:43:30.726Z,0.00
2019-02-26T02:44:30.711Z,0.00
2019-02-26T02:45:30.716Z,0.00
2019-02-26T02:46:30.725Z,0.00
2019-02-26T02:47:33.778Z,0.00
2019-02-26T02:48:31.667Z,0.00
2019-02-26T02:49:32.761Z,0.00
2019-02-26T02:50:31.648Z,0.00
2019-02-26T02:51:31.536Z,0.00
2019-02-26T02:52:33.114Z,0.00
2019-02-26T02:53:32.347Z,0.00
2019-02-26T02:54:30.627Z,0.00
2019-02-26T02:55:30.592Z,0.00
2019-02-26T02:56:31.380Z,0.00
2019-02-26T02:57:32.675Z,0.00
2019-02-26T02:58:30.565Z,0.00
2019-02-26T02:59:31.015Z,0.00
2019-02-26T03:00:32.216Z,0.00
2019-02-26T03:01:30.528Z,0.00
2019-02-26T03:02:30.522Z,0.00
2019-02-26T03:03:30.513Z,0.00
2019-02-26T03:04:31.706Z,0.00
2019-02-26T03:05:33.677Z,0.00
2019-02-26T03:06:32.384Z,0.00
2019-02-26T03:07:30.471Z,0.00
2019-02-26T03:08:30.452Z,0.00
2019-02-26T03:09:31.705Z,0.00
2019-02-26T03:10:31.682Z,0.00
2019-02-26T03:11:30.418Z,0.00
2019-02-26T03:12:30.409Z,0.00
2019-02-26T03:13:30.397Z,0.00
2019-02-26T03:14:33.148Z,0.00
2019-02-26T03:15:33.750Z,0.00
2019-02-26T03:16:30.377Z,0.00
2019-02-26T03:17:30.401Z,0.00
2019-02-26T03:18:30.352Z,0.00
2019-02-26T03:19:32.663Z,0.00
2019-02-26T03:20:31.365Z,0.00
2019-02-26T03:21:31.315Z,0.00
2019-02-26T03:22:30.332Z,0.00
2019-02-26T03:23:31.366Z,0.00
2019-02-26T03:24:31.476Z,0.00
2019-02-26T03:25:30.271Z,0.00
2019-02-26T03:26:30.262Z,0.00
2019-02-26T03:27:31.187Z,0.00
2019-02-26T03:28:34.917Z,0.00
2019-02-26T03:29:31.224Z,0.00
2019-02-26T03:30:34.044Z,0.00
2019-02-26T03:31:35.249Z,0.00
2019-02-26T03:32:31.200Z,0.00
2019-02-26T03:33:30.206Z,0.00
2019-02-26T03:34:30.176Z,0.00
2019-02-26T03:35:30.197Z,0.00
2019-02-26T03:36:31.605Z,0.00
2019-02-26T03:37:31.315Z,0.00
2019-02-26T03:38:30.159Z,0.00
2019-02-26T03:39:30.122Z,0.00
2019-02-26T03:40:33.153Z,0.00
2019-02-26T03:41:31.280Z,0.00
2019-02-26T03:42:30.084Z,0.00
2019-02-26T03:43:31.431Z,0.00
2019-02-26T03:44:30.451Z,0.00
2019-02-26T03:45:30.077Z,0.00
2019-02-26T03:46:30.053Z,0.00
2019-02-26T03:47:30.031Z,0.00
2019-02-26T03:48:30.022Z,0.00
2019-02-26T03:49:30.026Z,0.00
2019-02-26T03:50:30.037Z,0.00
2019-02-26T03:51:29.989Z,0.00
2019-02-26T03:52:32.105Z,0.00
2019-02-26T03:53:31.413Z,0.00
2019-02-26T03:54:29.958Z,0.00
2019-02-26T03:55:31.805Z,0.00
2019-02-26T03:56:29.951Z,0.00
2019-02-26T03:57:29.927Z,0.00
2019-02-26T03:58:29.913Z,0.00
2019-02-26T03:59:29.905Z,0.00
2019-02-26T04:00:31.835Z,0.00
2019-02-26T04:01:29.916Z,0.00
2019-02-26T04:02:29.873Z,0.00
2019-02-26T04:03:32.001Z,0.00
2019-02-26T04:04:31.185Z,0.00
2019-02-26T04:05:29.836Z,0.00
2019-02-26T04:06:30.601Z,0.00
2019-02-26T04:07:30.257Z,0.00
2019-02-26T04:08:30.287Z,0.00
2019-02-26T04:09:29.795Z,0.00
2019-02-26T04:10:29.786Z,0.00
2019-02-26T04:11:29.798Z,0.00
2019-02-26T04:12:29.773Z,0.00
2019-02-26T04:13:29.752Z,0.00
2019-02-26T04:14:30.694Z,0.00
2019-02-26T04:15:31.085Z,0.00
2019-02-26T04:16:32.262Z,0.00
2019-02-26T04:17:30.804Z,0.00
2019-02-26T04:18:34.186Z,0.00
2019-02-26T04:19:30.700Z,0.00
2019-02-26T04:20:29.670Z,0.00
2019-02-26T04:21:29.659Z,0.00
2019-02-26T04:22:29.694Z,0.00
2019-02-26T04:23:29.636Z,0.00
2019-02-26T04:24:32.600Z,0.00
2019-02-26T04:25:33.359Z,0.00
2019-02-26T04:26:34.436Z,0.00
2019-02-26T04:27:30.682Z,0.00
2019-02-26T04:28:32.981Z,0.00
2019-02-26T04:29:29.567Z,0.00
2019-02-26T04:30:34.037Z,0.00
2019-02-26T04:31:30.539Z,0.00
2019-02-26T04:32:29.528Z,0.00
2019-02-26T04:33:30.310Z,0.00
2019-02-26T04:34:29.521Z,0.00
2019-02-26T04:35:29.503Z,0.00
2019-02-26T04:36:29.487Z,0.00
2019-02-26T04:37:30.695Z,0.00
2019-02-26T04:38:31.160Z,0.00
2019-02-26T04:39:29.468Z,0.00
2019-02-26T04:40:30.512Z,0.00
2019-02-26T04:41:29.433Z,0.00
2019-02-26T04:42:29.416Z,0.00
2019-02-26T04:43:31.325Z,0.00
2019-02-26T04:44:31.343Z,0.00
2019-02-26T04:45:29.384Z,0.00
2019-02-26T04:46:31.592Z,0.00
2019-02-26T04:47:33.427Z,0.00
2019-02-26T04:48:31.710Z,0.00
2019-02-26T04:49:30.887Z,0.00
2019-02-26T04:50:32.395Z,0.00
2019-02-26T04:51:30.321Z,0.00
2019-02-26T04:52:30.115Z,0.00
2019-02-26T04:53:31.174Z,0.00
2019-02-26T04:54:31.034Z,0.00
2019-02-26T04:55:32.288Z,0.00
2019-02-26T04:56:33.523Z,0.00
2019-02-26T04:57:30.254Z,0.00
2019-02-26T04:58:29.238Z,0.00
2019-02-26T04:59:29.885Z,0.00
2019-02-26T05:00:32.147Z,0.00
2019-02-26T05:01:29.218Z,0.00
2019-02-26T05:02:29.207Z,0.00
2019-02-26T05:03:29.188Z,0.00
2019-02-26T05:04:30.692Z,0.00
2019-02-26T05:05:32.035Z,0.00
2019-02-26T05:06:30.189Z,0.00
2019-02-26T05:07:29.149Z,0.00
2019-02-26T05:08:31.549Z,0.00
2019-02-26T05:09:30.590Z,0.00
2019-02-26T05:10:31.824Z,0.00
2019-02-26T05:11:32.717Z,0.00
2019-02-26T05:12:31.653Z,0.00
2019-02-26T05:13:30.196Z,0.00
2019-02-26T05:14:29.073Z,0.00
2019-02-26T05:15:32.484Z,0.00
2019-02-26T05:16:31.882Z,0.00
2019-02-26T05:17:32.624Z,0.00
2019-02-26T05:18:31.635Z,0.00
2019-02-26T05:19:29.005Z,0.00
2019-02-26T05:20:31.251Z,0.00
2019-02-26T05:21:30.437Z,0.00
2019-02-26T05:22:30.882Z,0.00
2019-02-26T05:23:31.713Z,0.00
2019-02-26T05:24:28.947Z,0.00
2019-02-26T05:25:30.915Z,0.00
2019-02-26T05:26:30.254Z,4.00
2019-02-26T05:27:28.935Z,4.00
2019-02-26T05:28:29.875Z,0.00
2019-02-26T05:29:28.909Z,4.00
2019-02-26T05:30:28.887Z,4.00
2019-02-26T05:31:29.730Z,4.00
2019-02-26T05:32:30.919Z,4.00
2019-02-26T05:33:30.981Z,4.00
2019-02-26T05:34:28.878Z,4.00
2019-02-26T05:35:28.834Z,8.00
2019-02-26T05:36:31.065Z,8.00
2019-02-26T05:37:29.790Z,12.00
2019-02-26T05:38:30.584Z,16.00
2019-02-26T05:39:28.983Z,20.00
2019-02-26T05:40:28.789Z,20.00
2019-02-26T05:41:28.759Z,32.00
2019-02-26T05:42:28.749Z,36.00
2019-02-26T05:43:30.660Z,44.00
2019-02-26T05:44:28.737Z,52.00
2019-02-26T05:45:29.912Z,64.00
2019-02-26T05:46:29.489Z,72.00
2019-02-26T05:47:28.706Z,80.00
2019-02-26T05:48:28.687Z,88.00
2019-02-26T05:49:28.680Z,104.00
2019-02-26T05:50:30.189Z,116.00
2019-02-26T05:51:30.375Z,132.00
2019-02-26T05:52:30.681Z,148.00
2019-02-26T05:53:28.630Z,160.00
2019-02-26T05:54:28.620Z,180.00
2019-02-26T05:55:28.611Z,196.00
2019-02-26T05:56:28.591Z,216.00
2019-02-26T05:57:32.679Z,232.00
2019-02-26T05:58:28.576Z,252.00
2019-02-26T05:59:28.564Z,276.00
2019-02-26T06:00:32.736Z,300.00
2019-02-26T06:01:28.543Z,332.00
2019-02-26T06:02:28.548Z,368.00
2019-02-26T06:03:28.525Z,408.00
2019-02-26T06:04:28.509Z,452.00
2019-02-26T06:05:28.499Z,508.00
2019-02-26T06:06:28.485Z,564.00
2019-02-26T06:07:31.359Z,616.00
2019-02-26T06:08:32.751Z,668.00
2019-02-26T06:09:31.217Z,724.00
2019-02-26T06:10:32.397Z,784.00
2019-02-26T06:11:31.261Z,856.00
2019-02-26T06:12:32.418Z,936.00
2019-02-26T06:13:29.047Z,1024.00
2019-02-26T06:14:31.285Z,1112.00
2019-02-26T06:15:29.635Z,1200.00
2019-02-26T06:16:28.978Z,1300.00
2019-02-26T06:17:28.358Z,1404.00
2019-02-26T06:18:28.409Z,1500.00
2019-02-26T06:19:30.117Z,1580.00
2019-02-26T06:20:30.805Z,1656.00
2019-02-26T06:21:28.318Z,1740.00
2019-02-26T06:22:29.633Z,1844.00
2019-02-26T06:23:31.093Z,1948.00
2019-02-26T06:24:30.749Z,2032.00
2019-02-26T06:25:28.275Z,2116.00
2019-02-26T06:26:32.639Z,2200.00
2019-02-26T06:27:29.267Z,2280.00
2019-02-26T06:28:28.242Z,2360.00
2019-02-26T06:29:30.046Z,2460.00
2019-02-26T06:30:28.217Z,2564.00
2019-02-26T06:31:28.203Z,2680.00
2019-02-26T06:32:32.195Z,2840.00
2019-02-26T06:33:31.840Z,3096.00
2019-02-26T06:34:28.176Z,3348.00
2019-02-26T06:35:28.210Z,3508.00
2019-02-26T06:36:28.687Z,3632.00
2019-02-26T06:37:29.169Z,3744.00
2019-02-26T06:38:30.368Z,3904.00
2019-02-26T06:39:29.962Z,4088.00
2019-02-26T06:40:28.125Z,4164.00
2019-02-26T06:41:28.097Z,4260.00
2019-02-26T06:42:28.814Z,4376.00
2019-02-26T06:43:28.076Z,4476.00
2019-02-26T06:44:28.066Z,4576.00
2019-02-26T06:45:28.056Z,4660.00
2019-02-26T06:46:29.372Z,4484.00
2019-02-26T06:47:30.520Z,3960.00
2019-02-26T06:48:29.818Z,3780.00
2019-02-26T06:49:29.099Z,3768.00
2019-02-26T06:50:27.995Z,3804.00
2019-02-26T06:51:28.915Z,3876.00
2019-02-26T06:52:29.887Z,3964.00
2019-02-26T06:53:27.961Z,4076.00
2019-02-26T06:54:29.135Z,4444.00
2019-02-26T06:55:27.939Z,4660.00
2019-02-26T06:56:30.003Z,4492.00
2019-02-26T06:57:27.922Z,4292.00
2019-02-26T06:58:27.907Z,4204.00
2019-02-26T06:59:29.557Z,4128.00
2019-02-26T07:00:29.417Z,4096.00
2019-02-26T07:01:27.910Z,4144.00
2019-02-26T07:02:28.937Z,4300.00
2019-02-26T07:03:27.850Z,4548.00
2019-02-26T07:04:30.149Z,4752.00
2019-02-26T07:05:27.834Z,4964.00
2019-02-26T07:06:30.170Z,5200.00
2019-02-26T07:07:27.836Z,5328.00
2019-02-26T07:08:30.400Z,5440.00
2019-02-26T07:09:27.792Z,5648.00
2019-02-26T07:10:29.539Z,5908.00
2019-02-26T07:11:30.165Z,6092.00
2019-02-26T07:12:27.764Z,6180.00
2019-02-26T07:13:27.750Z,6204.00
2019-02-26T07:14:29.732Z,6204.00
2019-02-26T07:15:29.364Z,6228.00
2019-02-26T07:16:27.714Z,6256.00
2019-02-26T07:17:31.856Z,6252.00
2019-02-26T07:18:28.698Z,6288.00
2019-02-26T07:19:29.048Z,6340.00
2019-02-26T07:20:33.900Z,6400.00
2019-02-26T07:21:28.657Z,6492.00
2019-02-26T07:22:27.647Z,6576.00
2019-02-26T07:23:29.769Z,6648.00
2019-02-26T07:24:27.636Z,6788.00
2019-02-26T07:25:27.622Z,7020.00
2019-02-26T07:26:27.604Z,7256.00
2019-02-26T07:27:28.939Z,7604.00
2019-02-26T07:28:27.584Z,7904.00
2019-02-26T07:29:30.806Z,8144.00
2019-02-26T07:30:28.558Z,8364.00
2019-02-26T07:31:28.816Z,8564.00
2019-02-26T07:32:27.537Z,8540.00
2019-02-26T07:33:29.838Z,8404.00
2019-02-26T07:34:27.568Z,8212.00
2019-02-26T07:35:28.743Z,8120.00
2019-02-26T07:36:28.142Z,8172.00
2019-02-26T07:37:28.706Z,8352.00
2019-02-26T07:38:27.716Z,8348.00
2019-02-26T07:39:27.464Z,8500.00
2019-02-26T07:40:28.415Z,8608.00
2019-02-26T07:41:29.853Z,8840.00
2019-02-26T07:42:27.429Z,9412.00
2019-02-26T07:43:27.411Z,10172.00
2019-02-26T07:44:28.381Z,11300.00
2019-02-26T07:45:29.615Z,13928.00
2019-02-26T07:46:27.392Z,16864.00
2019-02-26T07:47:29.391Z,17568.00
2019-02-26T07:48:29.509Z,16640.00
2019-02-26T07:49:27.343Z,15300.00
2019-02-26T07:50:31.533Z,14440.00
2019-02-26T07:51:29.368Z,14732.00
2019-02-26T07:52:28.467Z,13108.00
2019-02-26T07:53:27.303Z,12924.00
2019-02-26T07:54:28.811Z,12644.00
2019-02-26T07:55:27.686Z,12844.00
2019-02-26T07:56:28.174Z,12024.00
2019-02-26T07:57:27.708Z,11896.00
2019-02-26T07:58:27.287Z,12508.00
2019-02-26T07:59:27.943Z,13668.00
2019-02-26T08:00:27.226Z,15604.00
2019-02-26T08:01:27.221Z,19104.00
2019-02-26T08:02:27.912Z,21536.00
2019-02-26T08:03:29.310Z,19968.00
2019-02-26T08:04:27.207Z,20928.00
2019-02-26T08:05:28.886Z,21760.00
2019-02-26T08:06:29.209Z,22816.00
2019-02-26T08:07:28.491Z,20480.00
2019-02-26T08:08:27.148Z,17376.00
2019-02-26T08:09:27.129Z,16352.00
2019-02-26T08:10:27.111Z,16080.00
2019-02-26T08:11:27.097Z,16192.00
2019-02-26T08:12:27.094Z,17696.00
2019-02-26T08:13:29.857Z,18624.00
2019-02-26T08:14:27.071Z,18272.00
2019-02-26T08:15:27.853Z,19200.00
2019-02-26T08:16:27.735Z,20128.00
2019-02-26T08:17:27.038Z,19904.00
2019-02-26T08:18:27.056Z,18144.00
2019-02-26T08:19:29.539Z,17824.00
2019-02-26T08:20:28.433Z,19232.00
2019-02-26T08:21:29.108Z,23936.00
2019-02-26T08:22:27.567Z,21952.00
2019-02-26T08:23:26.969Z,28864.00
2019-02-26T08:24:26.984Z,37056.00
2019-02-26T08:25:26.962Z,28256.00
2019-02-26T08:26:29.072Z,40192.00
2019-02-26T08:27:28.573Z,40608.00
2019-02-26T08:28:26.920Z,39392.00
2019-02-26T08:29:28.904Z,29568.00
2019-02-26T08:30:26.889Z,30816.00
2019-02-26T08:31:27.936Z,20448.00
2019-02-26T08:32:28.627Z,19744.00
2019-02-26T08:33:26.860Z,19968.00
2019-02-26T08:34:26.844Z,22016.00
2019-02-26T08:35:26.848Z,21760.00
2019-02-26T08:36:26.829Z,22080.00
2019-02-26T08:37:26.820Z,20416.00
2019-02-26T08:38:29.368Z,19968.00
2019-02-26T08:39:26.790Z,18656.00
2019-02-26T08:40:26.785Z,18048.00
2019-02-26T08:41:26.766Z,20416.00
2019-02-26T08:42:26.765Z,28640.00
2019-02-26T08:43:26.752Z,28192.00
2019-02-26T08:44:28.157Z,26656.00
2019-02-26T08:45:26.763Z,26304.00
2019-02-26T08:46:26.928Z,25728.00
2019-02-26T08:47:26.701Z,25888.00
2019-02-26T08:48:27.138Z,25696.00
2019-02-26T08:49:26.717Z,22496.00
2019-02-26T08:50:30.692Z,21408.00
2019-02-26T08:51:27.667Z,22400.00
2019-02-26T08:52:28.849Z,24800.00
2019-02-26T08:53:28.520Z,25248.00
2019-02-26T08:54:28.419Z,24064.00
2019-02-26T08:55:26.622Z,21760.00
2019-02-26T08:56:28.290Z,23840.00
2019-02-26T08:57:26.589Z,26336.00
2019-02-26T08:58:28.280Z,28480.00
2019-02-26T08:59:26.568Z,27552.00
2019-02-26T09:00:26.572Z,31552.00
2019-02-26T09:01:26.549Z,29728.00
2019-02-26T09:02:26.553Z,27424.00
2019-02-26T09:03:26.521Z,24768.00
2019-02-26T09:04:26.507Z,20768.00
2019-02-26T09:05:29.176Z,19232.00
2019-02-26T09:06:26.990Z,17792.00
2019-02-26T09:07:26.495Z,16760.00
2019-02-26T09:08:26.464Z,16904.00
2019-02-26T09:09:27.774Z,17280.00
2019-02-26T09:10:26.458Z,16916.00
2019-02-26T09:11:28.653Z,16112.00
2019-02-26T09:12:27.257Z,15276.00
2019-02-26T09:13:26.437Z,15176.00
2019-02-26T09:14:26.408Z,15796.00
2019-02-26T09:15:26.383Z,16420.00
2019-02-26T09:16:28.317Z,16708.00
2019-02-26T09:17:27.518Z,16892.00
2019-02-26T09:18:28.139Z,17408.00
2019-02-26T09:19:27.832Z,18016.00
2019-02-26T09:20:26.343Z,18400.00
2019-02-26T09:21:26.320Z,18240.00
2019-02-26T09:22:28.371Z,17856.00
2019-02-26T09:23:28.154Z,17536.00
2019-02-26T09:24:26.289Z,17088.00
2019-02-26T09:25:28.789Z,16176.00
2019-02-26T09:26:26.268Z,15364.00
2019-02-26T09:27:27.184Z,14692.00
2019-02-26T09:28:27.079Z,14284.00
2019-02-26T09:29:26.242Z,13884.00
2019-02-26T09:30:28.187Z,13560.00
2019-02-26T09:31:26.225Z,13532.00
2019-02-26T09:32:28.244Z,13444.00
2019-02-26T09:33:30.558Z,13432.00
2019-02-26T09:34:29.307Z,13616.00
2019-02-26T09:35:28.827Z,13764.00
2019-02-26T09:36:29.185Z,13876.00
2019-02-26T09:37:26.146Z,13944.00
2019-02-26T09:38:26.678Z,14128.00
2019-02-26T09:39:27.538Z,14280.00
2019-02-26T09:40:28.862Z,14312.00
2019-02-26T09:41:26.101Z,14280.00
2019-02-26T09:42:27.757Z,14524.00
2019-02-26T09:43:26.081Z,14948.00
2019-02-26T09:44:26.930Z,15296.00
2019-02-26T09:45:29.307Z,15584.00
2019-02-26T09:46:26.059Z,15808.00
2019-02-26T09:47:28.429Z,16024.00
2019-02-26T09:48:26.025Z,16500.00
2019-02-26T09:49:26.730Z,16632.00
2019-02-26T09:50:26.016Z,16632.00
2019-02-26T09:51:25.992Z,16456.00
2019-02-26T09:52:27.696Z,16348.00
2019-02-26T09:53:25.973Z,16376.00
2019-02-26T09:54:26.037Z,16876.00
2019-02-26T09:55:25.999Z,17920.00
2019-02-26T09:56:25.937Z,18560.00
2019-02-26T09:57:28.199Z,19136.00
2019-02-26T09:58:25.924Z,20128.00
2019-02-26T09:59:26.558Z,20288.00
2019-02-26T10:00:29.113Z,20192.00
2019-02-26T10:01:25.875Z,19648.00
2019-02-26T10:02:26.507Z,19200.00
2019-02-26T10:03:27.282Z,18816.00
2019-02-26T10:04:26.602Z,18528.00
2019-02-26T10:05:25.829Z,18112.00
2019-02-26T10:06:25.829Z,17568.00
2019-02-26T10:07:26.568Z,16548.00
2019-02-26T10:08:27.970Z,16180.00
2019-02-26T10:09:25.799Z,16020.00
2019-02-26T10:10:28.349Z,15980.00
2019-02-26T10:11:27.949Z,15868.00
2019-02-26T10:12:28.027Z,15816.00
2019-02-26T10:13:27.692Z,16512.00
2019-02-26T10:14:26.962Z,17664.00
2019-02-26T10:15:25.730Z,18528.00
2019-02-26T10:16:28.133Z,19232.00
2019-02-26T10:17:25.705Z,19488.00
2019-02-26T10:18:27.786Z,19136.00
2019-02-26T10:19:25.677Z,19104.00
2019-02-26T10:20:28.619Z,19488.00
2019-02-26T10:21:26.667Z,19744.00
2019-02-26T10:22:26.215Z,20160.00
2019-02-26T10:23:26.818Z,20256.00
2019-02-26T10:24:27.404Z,20096.00
2019-02-26T10:25:26.427Z,20576.00
2019-02-26T10:26:26.309Z,20672.00
2019-02-26T10:27:25.611Z,20544.00
2019-02-26T10:28:25.582Z,20448.00
2019-02-26T10:29:25.573Z,20928.00
2019-02-26T10:30:27.698Z,21824.00
2019-02-26T10:31:27.466Z,22560.00
2019-02-26T10:32:26.491Z,24032.00
2019-02-26T10:33:25.528Z,24896.00
2019-02-26T10:34:30.031Z,25504.00
2019-02-26T10:35:33.166Z,25664.00
2019-02-26T10:36:30.346Z,26208.00
2019-02-26T10:37:26.494Z,26688.00
2019-02-26T10:38:29.582Z,26240.00
2019-02-26T10:39:28.301Z,25728.00
2019-02-26T10:40:34.628Z,24512.00
2019-02-26T10:41:26.443Z,23616.00
2019-02-26T10:42:25.432Z,22592.00
2019-02-26T10:43:25.411Z,21600.00
2019-02-26T10:44:25.399Z,20448.00
2019-02-26T10:45:25.388Z,19488.00
2019-02-26T10:46:25.380Z,18336.00
2019-02-26T10:47:27.343Z,17920.00
2019-02-26T10:48:27.963Z,18624.00
2019-02-26T10:49:25.363Z,19232.00
2019-02-26T10:50:31.115Z,19936.00
2019-02-26T10:51:27.184Z,20544.00
2019-02-26T10:52:26.371Z,20992.00
2019-02-26T10:53:25.313Z,20960.00
2019-02-26T10:54:25.290Z,21408.00
2019-02-26T10:55:31.267Z,22592.00
2019-02-26T10:56:28.685Z,23360.00
2019-02-26T10:57:27.006Z,22816.00
2019-02-26T10:58:25.278Z,22112.00
2019-02-26T10:59:25.243Z,21440.00
2019-02-26T11:00:27.899Z,20384.00
2019-02-26T11:01:27.649Z,20064.00
2019-02-26T11:02:27.486Z,21216.00
2019-02-26T11:03:25.201Z,22656.00
2019-02-26T11:04:34.484Z,23936.00
2019-02-26T11:05:26.759Z,24832.00
2019-02-26T11:06:25.159Z,25472.00
2019-02-26T11:07:26.415Z,25728.00
2019-02-26T11:08:28.933Z,25920.00
2019-02-26T11:09:28.719Z,26592.00
2019-02-26T11:10:25.319Z,26400.00
2019-02-26T11:11:25.123Z,26784.00
2019-02-26T11:12:27.733Z,26048.00
2019-02-26T11:13:25.887Z,26016.00
2019-02-26T11:14:25.066Z,25728.00
2019-02-26T11:15:26.842Z,25184.00
2019-02-26T11:16:27.830Z,24608.00
2019-02-26T11:17:26.323Z,24864.00
2019-02-26T11:18:25.032Z,23648.00
2019-02-26T11:19:27.241Z,22528.00
2019-02-26T11:20:27.700Z,21536.00
2019-02-26T11:21:26.010Z,20768.00
2019-02-26T11:22:27.067Z,20000.00
2019-02-26T11:23:30.764Z,20128.00
2019-02-26T11:24:28.216Z,20064.00
2019-02-26T11:25:27.420Z,20352.00
2019-02-26T11:26:24.936Z,21888.00
2019-02-26T11:27:24.933Z,23616.00
2019-02-26T11:28:27.465Z,25056.00
2019-02-26T11:29:26.109Z,25984.00
2019-02-26T11:30:27.997Z,26048.00
2019-02-26T11:31:25.573Z,26144.00
2019-02-26T11:32:27.180Z,26496.00
2019-02-26T11:33:24.868Z,25664.00
2019-02-26T11:34:25.486Z,25024.00
2019-02-26T11:35:27.118Z,22400.00
2019-02-26T11:36:25.181Z,20512.00
2019-02-26T11:37:26.694Z,19616.00
2019-02-26T11:38:24.807Z,19680.00
2019-02-26T11:39:24.793Z,20032.00
2019-02-26T11:40:27.246Z,20192.00
2019-02-26T11:41:26.372Z,18880.00
2019-02-26T11:42:26.178Z,17888.00
2019-02-26T11:43:26.962Z,17408.00
2019-02-26T11:44:25.789Z,18400.00
2019-02-26T11:45:24.726Z,21568.00
2019-02-26T11:46:25.330Z,32832.00
2019-02-26T11:47:24.718Z,34560.00
2019-02-26T11:48:25.938Z,42336.00
2019-02-26T11:49:24.678Z,41792.00
2019-02-26T11:50:28.223Z,35232.00
2019-02-26T11:51:24.654Z,30240.00
2019-02-26T11:52:24.648Z,28032.00
2019-02-26T11:53:24.639Z,25792.00
2019-02-26T11:54:24.646Z,26496.00
2019-02-26T11:55:26.842Z,28224.00
2019-02-26T11:56:25.702Z,29344.00
2019-02-26T11:57:24.591Z,38912.00
2019-02-26T11:58:26.903Z,41248.00
2019-02-26T11:59:24.564Z,34336.00
2019-02-26T12:00:25.858Z,39520.00
2019-02-26T12:01:26.993Z,33600.00
2019-02-26T12:03:29.750Z,28384.00
2019-02-26T12:04:24.982Z,24928.00
2019-02-26T12:05:32.840Z,21472.00
2019-02-26T12:06:25.489Z,20224.00
2019-02-26T12:07:25.629Z,18976.00
2019-02-26T12:08:25.662Z,17632.00
2019-02-26T12:09:24.459Z,16736.00
2019-02-26T12:10:27.084Z,16400.00
2019-02-26T12:11:25.433Z,16316.00
2019-02-26T12:12:25.815Z,16044.00
2019-02-26T12:13:25.070Z,16332.00
2019-02-26T12:14:24.400Z,17344.00
2019-02-26T12:15:24.391Z,18080.00
2019-02-26T12:16:24.417Z,18368.00
2019-02-26T12:17:24.365Z,18848.00
2019-02-26T12:18:24.359Z,19488.00
2019-02-26T12:19:25.680Z,19200.00
2019-02-26T12:20:24.359Z,18624.00
2019-02-26T12:21:25.176Z,18240.00
2019-02-26T12:22:25.192Z,17984.00
2019-02-26T12:23:24.319Z,17696.00
2019-02-26T12:24:26.574Z,17376.00
2019-02-26T12:25:24.279Z,16704.00
2019-02-26T12:26:25.618Z,15712.00
2019-02-26T12:27:24.272Z,14888.00
2019-02-26T12:28:25.436Z,14156.00
2019-02-26T12:29:25.993Z,13620.00
2019-02-26T12:30:24.224Z,13400.00